createdAt,value
2019-01-10T00:00:11.698Z,974.82
2019-01-10T00:01:11.609Z,974.84
2019-01-10T00:02:11.520Z,974.86
2019-01-10T00:03:11.435Z,974.87
2019-01-10T00:04:11.350Z,974.93
2019-01-10T00:05:11.253Z,974.90
2019-01-10T00:06:11.175Z,974.89
2019-01-10T00:07:11.079Z,974.98
2019-01-10T00:08:10.985Z,975.02
2019-01-10T00:09:10.912Z,974.94
2019-01-10T00:10:10.807Z,975.02
2019-01-10T00:11:10.771Z,974.92
2019-01-10T00:12:10.628Z,975.02
2019-01-10T00:13:10.539Z,974.92
2019-01-10T00:14:10.453Z,974.96
2019-01-10T00:15:10.361Z,974.95
2019-01-10T00:16:10.286Z,974.89
2019-01-10T00:17:10.180Z,975.02
2019-01-10T00:18:10.094Z,974.96
2019-01-10T00:19:10.005Z,974.98
2019-01-10T00:20:09.919Z,975.06
2019-01-10T00:21:09.825Z,975.09
2019-01-10T00:22:09.745Z,975.01
2019-01-10T00:23:09.647Z,975.06
2019-01-10T00:24:09.557Z,975.10
2019-01-10T00:25:09.474Z,975.05
2019-01-10T00:26:09.386Z,975.04
2019-01-10T00:27:09.293Z,975.13
2019-01-10T00:28:09.201Z,975.19
2019-01-10T00:29:09.112Z,975.22
2019-01-10T00:30:09.026Z,975.14
2019-01-10T00:31:08.937Z,975.21
2019-01-10T00:32:08.845Z,975.30
2019-01-10T00:33:08.758Z,975.19
2019-01-10T00:34:08.668Z,975.24
2019-01-10T00:35:08.581Z,975.30
2019-01-10T00:36:08.493Z,975.19
2019-01-10T00:37:08.398Z,975.24
2019-01-10T00:38:08.313Z,975.22
2019-01-10T00:39:08.228Z,975.32
2019-01-10T00:40:08.133Z,975.35
2019-01-10T00:41:08.042Z,975.34
2019-01-10T00:42:07.960Z,975.29
2019-01-10T00:43:07.867Z,975.32
2019-01-10T00:44:07.781Z,975.35
2019-01-10T00:45:07.689Z,975.26
2019-01-10T00:46:07.688Z,975.23
2019-01-10T00:47:07.511Z,975.37
2019-01-10T00:48:07.421Z,975.32
2019-01-10T00:49:07.331Z,975.40
2019-01-10T00:50:07.254Z,975.38
2019-01-10T00:51:07.154Z,975.43
2019-01-10T00:52:07.069Z,975.47
2019-01-10T00:53:06.976Z,975.40
2019-01-10T00:54:06.888Z,975.44
2019-01-10T00:55:06.800Z,975.46
2019-01-10T00:56:06.707Z,975.41
2019-01-10T00:57:06.618Z,975.43
2019-01-10T00:58:06.529Z,975.42
2019-01-10T00:59:06.446Z,975.44
2019-01-10T01:00:06.353Z,975.45
2019-01-10T01:01:06.277Z,975.50
2019-01-10T01:02:06.173Z,975.54
2019-01-10T01:03:06.096Z,975.54
2019-01-10T01:04:05.998Z,975.52
2019-01-10T01:05:05.912Z,975.53
2019-01-10T01:06:05.826Z,975.55
2019-01-10T01:07:05.729Z,975.56
2019-01-10T01:08:05.680Z,975.53
2019-01-10T01:09:05.550Z,975.58
2019-01-10T01:10:05.461Z,975.63
2019-01-10T01:11:05.375Z,975.65
2019-01-10T01:12:05.285Z,975.57
2019-01-10T01:13:05.200Z,975.60
2019-01-10T01:14:05.107Z,975.64
2019-01-10T01:15:05.021Z,975.63
2019-01-10T01:16:04.929Z,975.61
2019-01-10T01:17:04.839Z,975.70
2019-01-10T01:18:04.751Z,975.65
2019-01-10T01:19:04.668Z,975.75
2019-01-10T01:20:04.578Z,975.77
2019-01-10T01:21:04.485Z,975.73
2019-01-10T01:22:04.492Z,975.74
2019-01-10T01:23:04.304Z,975.71
2019-01-10T01:24:04.215Z,975.86
2019-01-10T01:25:04.129Z,975.80
2019-01-10T01:26:04.040Z,975.83
2019-01-10T01:27:03.951Z,975.81
2019-01-10T01:28:03.858Z,975.76
2019-01-10T01:29:03.770Z,975.74
2019-01-10T01:30:03.681Z,975.81
2019-01-10T01:31:03.594Z,975.85
2019-01-10T01:32:03.503Z,975.76
2019-01-10T01:33:03.415Z,975.74
2019-01-10T01:34:03.324Z,975.68
2019-01-10T01:35:03.237Z,975.75
2019-01-10T01:36:03.145Z,975.67
2019-01-10T01:37:03.064Z,975.74
2019-01-10T01:38:02.969Z,975.85
2019-01-10T01:39:02.882Z,975.82
2019-01-10T01:40:02.803Z,975.81
2019-01-10T01:41:02.703Z,975.81
2019-01-10T01:42:02.611Z,975.87
2019-01-10T01:43:07.371Z,975.90
2019-01-10T01:44:02.433Z,975.76
2019-01-10T01:45:02.345Z,975.89
2019-01-10T01:46:02.256Z,975.86
2019-01-10T01:47:02.168Z,975.92
2019-01-10T01:48:02.079Z,975.85
2019-01-10T01:49:01.990Z,975.86
2019-01-10T01:50:01.903Z,975.83
2019-01-10T01:51:01.819Z,975.90
2019-01-10T01:52:08.898Z,976.01
2019-01-10T01:54:05.556Z,975.90
2019-01-10T01:55:05.419Z,976.01
2019-01-10T01:56:05.332Z,976.00
2019-01-10T01:57:05.239Z,975.93
2019-01-10T01:58:05.152Z,976.02
2019-01-10T01:59:05.064Z,975.86
2019-01-10T02:00:04.973Z,975.86
2019-01-10T02:01:04.883Z,975.99
2019-01-10T02:02:04.794Z,975.99
2019-01-10T02:03:04.707Z,975.98
2019-01-10T02:04:04.616Z,975.96
2019-01-10T02:05:04.528Z,976.02
2019-01-10T02:06:04.463Z,976.02
2019-01-10T02:07:04.349Z,975.93
2019-01-10T02:08:04.264Z,975.97
2019-01-10T02:09:04.172Z,975.97
2019-01-10T02:10:04.090Z,975.97
2019-01-10T02:11:03.996Z,976.06
2019-01-10T02:12:03.907Z,976.10
2019-01-10T02:13:03.816Z,976.05
2019-01-10T02:14:03.730Z,976.08
2019-01-10T02:15:03.637Z,976.06
2019-01-10T02:16:03.663Z,976.12
2019-01-10T02:17:03.461Z,976.05
2019-01-10T02:18:10.078Z,976.10
2019-01-10T02:19:03.280Z,976.10
2019-01-10T02:20:03.192Z,976.13
2019-01-10T02:21:03.105Z,976.17
2019-01-10T02:22:03.012Z,976.19
2019-01-10T02:23:02.925Z,976.18
2019-01-10T02:24:02.839Z,976.21
2019-01-10T02:25:02.748Z,976.21
2019-01-10T02:26:02.658Z,976.21
2019-01-10T02:27:02.568Z,976.21
2019-01-10T02:28:02.490Z,976.19
2019-01-10T02:29:02.390Z,976.14
2019-01-10T02:30:02.301Z,976.15
2019-01-10T02:31:02.214Z,976.24
2019-01-10T02:32:02.124Z,976.19
2019-01-10T02:33:02.033Z,976.24
2019-01-10T02:34:01.945Z,976.19
2019-01-10T02:35:01.860Z,976.26
2019-01-10T02:36:01.768Z,976.16
2019-01-10T02:37:01.678Z,976.20
2019-01-10T02:38:01.592Z,976.18
2019-01-10T02:39:01.500Z,976.21
2019-01-10T02:40:01.414Z,976.24
2019-01-10T02:41:02.773Z,976.21
2019-01-10T02:42:01.237Z,976.22
2019-01-10T02:43:01.143Z,976.24
2019-01-10T02:44:01.054Z,976.28
2019-01-10T02:45:00.965Z,976.24
2019-01-10T02:46:00.892Z,976.22
2019-01-10T02:47:00.794Z,976.25
2019-01-10T02:48:00.702Z,976.22
2019-01-10T02:49:00.609Z,976.24
2019-01-10T02:50:00.516Z,976.29
2019-01-10T02:51:00.477Z,976.28
2019-01-10T02:52:00.340Z,976.23
2019-01-10T02:53:00.252Z,976.21
2019-01-10T02:54:00.163Z,976.19
2019-01-10T02:55:00.172Z,976.19
2019-01-10T02:55:59.996Z,976.27
2019-01-10T02:56:59.902Z,976.33
2019-01-10T02:57:59.806Z,976.35
2019-01-10T02:58:59.716Z,976.31
2019-01-10T02:59:59.627Z,976.35
2019-01-10T03:00:59.540Z,976.26
2019-01-10T03:01:59.450Z,976.28
2019-01-10T03:02:59.359Z,976.23
2019-01-10T03:03:59.273Z,976.35
2019-01-10T03:04:59.184Z,976.45
2019-01-10T03:05:59.095Z,976.35
2019-01-10T03:06:59.004Z,976.37
2019-01-10T03:07:58.914Z,976.34
2019-01-10T03:08:58.829Z,976.40
2019-01-10T03:09:58.739Z,976.29
2019-01-10T03:10:58.648Z,976.28
2019-01-10T03:11:58.570Z,976.41
2019-01-10T03:12:58.475Z,976.31
2019-01-10T03:13:58.383Z,976.31
2019-01-10T03:14:58.291Z,976.31
2019-01-10T03:15:58.203Z,976.36
2019-01-10T03:16:58.116Z,976.30
2019-01-10T03:17:58.024Z,976.29
2019-01-10T03:18:57.940Z,976.26
2019-01-10T03:19:57.850Z,976.33
2019-01-10T03:20:57.757Z,976.35
2019-01-10T03:21:57.670Z,976.36
2019-01-10T03:22:57.580Z,976.35
2019-01-10T03:23:57.490Z,976.35
2019-01-10T03:24:57.401Z,976.45
2019-01-10T03:25:57.315Z,976.30
2019-01-10T03:26:57.223Z,976.34
2019-01-10T03:27:57.134Z,976.30
2019-01-10T03:28:57.047Z,976.32
2019-01-10T03:29:56.955Z,976.35
2019-01-10T03:30:56.866Z,976.35
2019-01-10T03:31:56.789Z,976.40
2019-01-10T03:32:56.702Z,976.30
2019-01-10T03:33:56.609Z,976.37
2019-01-10T03:34:56.510Z,976.43
2019-01-10T03:35:56.427Z,976.39
2019-01-10T03:36:56.343Z,976.38
2019-01-10T03:37:56.246Z,976.38
2019-01-10T03:38:56.152Z,976.28
2019-01-10T03:39:56.071Z,976.36
2019-01-10T03:40:55.974Z,976.36
2019-01-10T03:41:55.888Z,976.29
2019-01-10T03:42:55.797Z,976.35
2019-01-10T03:43:55.715Z,976.37
2019-01-10T03:44:55.627Z,976.38
2019-01-10T03:45:55.532Z,976.36
2019-01-10T03:46:55.475Z,976.41
2019-01-10T03:47:55.352Z,976.36
2019-01-10T03:48:55.262Z,976.42
2019-01-10T03:49:55.173Z,976.39
2019-01-10T03:50:55.087Z,976.39
2019-01-10T03:51:54.996Z,976.47
2019-01-10T03:52:54.908Z,976.47
2019-01-10T03:53:54.821Z,976.45
2019-01-10T03:54:54.729Z,976.47
2019-01-10T03:55:54.640Z,976.39
2019-01-10T03:56:54.550Z,976.48
2019-01-10T03:57:54.461Z,976.41
2019-01-10T03:58:54.374Z,976.48
2019-01-10T03:59:54.287Z,976.40
2019-01-10T04:00:54.208Z,976.46
2019-01-10T04:01:54.105Z,976.48
2019-01-10T04:02:54.016Z,976.46
2019-01-10T04:03:53.927Z,976.49
2019-01-10T04:04:53.837Z,976.52
2019-01-10T04:05:53.748Z,976.50
2019-01-10T04:06:53.663Z,976.49
2019-01-10T04:07:53.570Z,976.54
2019-01-10T04:08:53.481Z,976.49
2019-01-10T04:09:53.403Z,976.49
2019-01-10T04:10:53.304Z,976.54
2019-01-10T04:11:53.220Z,976.52
2019-01-10T04:12:53.126Z,976.51
2019-01-10T04:13:57.521Z,976.55
2019-01-10T04:14:52.955Z,976.48
2019-01-10T04:15:52.897Z,976.52
2019-01-10T04:16:52.774Z,976.57
2019-01-10T04:17:52.681Z,976.60
2019-01-10T04:18:52.590Z,976.62
2019-01-10T04:19:52.504Z,976.61
2019-01-10T04:20:52.414Z,976.58
2019-01-10T04:21:52.327Z,976.68
2019-01-10T04:22:52.235Z,976.63
2019-01-10T04:23:52.150Z,976.60
2019-01-10T04:24:52.056Z,976.61
2019-01-10T04:25:51.973Z,976.69
2019-01-10T04:26:51.879Z,976.60
2019-01-10T04:27:51.789Z,976.64
2019-01-10T04:28:51.700Z,976.62
2019-01-10T04:29:51.637Z,976.70
2019-01-10T04:30:51.527Z,976.72
2019-01-10T04:31:51.435Z,976.63
2019-01-10T04:32:51.348Z,976.65
2019-01-10T04:33:51.258Z,976.63
2019-01-10T04:34:51.227Z,976.71
2019-01-10T04:35:51.079Z,976.67
2019-01-10T04:36:50.990Z,976.69
2019-01-10T04:37:50.900Z,976.68
2019-01-10T04:38:50.811Z,976.71
2019-01-10T04:39:50.736Z,976.67
2019-01-10T04:40:50.635Z,976.71
2019-01-10T04:41:50.549Z,976.67
2019-01-10T04:42:50.458Z,976.77
2019-01-10T04:43:50.368Z,976.69
2019-01-10T04:44:50.281Z,976.74
2019-01-10T04:45:50.196Z,976.74
2019-01-10T04:46:50.100Z,976.74
2019-01-10T04:47:50.021Z,976.82
2019-01-10T04:48:49.927Z,976.83
2019-01-10T04:49:49.897Z,976.79
2019-01-10T04:50:49.745Z,976.75
2019-01-10T04:51:49.663Z,976.85
2019-01-10T04:52:49.567Z,976.83
2019-01-10T04:53:49.477Z,976.88
2019-01-10T04:54:49.388Z,976.93
2019-01-10T04:55:49.332Z,976.95
2019-01-10T04:56:49.218Z,976.87
2019-01-10T04:57:49.136Z,976.90
2019-01-10T04:58:49.052Z,976.96
2019-01-10T04:59:48.953Z,976.94
2019-01-10T05:00:48.854Z,976.96
2019-01-10T05:01:48.778Z,977.01
2019-01-10T05:02:48.678Z,977.01
2019-01-10T05:03:48.618Z,977.02
2019-01-10T05:04:48.500Z,977.04
2019-01-10T05:05:48.415Z,977.01
2019-01-10T05:06:48.325Z,977.05
2019-01-10T05:07:48.234Z,977.10
2019-01-10T05:08:48.147Z,977.06
2019-01-10T05:09:48.055Z,977.02
2019-01-10T05:10:47.966Z,977.09
2019-01-10T05:11:47.883Z,977.08
2019-01-10T05:12:47.793Z,977.17
2019-01-10T05:13:47.700Z,977.14
2019-01-10T05:14:47.612Z,977.17
2019-01-10T05:15:47.521Z,977.13
2019-01-10T05:16:47.439Z,977.18
2019-01-10T05:17:47.345Z,977.15
2019-01-10T05:18:47.257Z,977.17
2019-01-10T05:19:47.169Z,977.16
2019-01-10T05:20:47.078Z,977.23
2019-01-10T05:21:46.988Z,977.28
2019-01-10T05:22:46.900Z,977.19
2019-01-10T05:23:46.812Z,977.29
2019-01-10T05:24:46.725Z,977.27
2019-01-10T05:25:46.633Z,977.24
2019-01-10T05:26:46.543Z,977.32
2019-01-10T05:27:46.463Z,977.30
2019-01-10T05:28:46.366Z,977.33
2019-01-10T05:29:46.279Z,977.33
2019-01-10T05:30:46.190Z,977.49
2019-01-10T05:31:46.104Z,977.41
2019-01-10T05:32:46.011Z,977.38
2019-01-10T05:33:45.921Z,977.49
2019-01-10T05:34:45.833Z,977.42
2019-01-10T05:35:45.744Z,977.37
2019-01-10T05:36:45.655Z,977.45
2019-01-10T05:37:45.564Z,977.50
2019-01-10T05:38:45.477Z,977.50
2019-01-10T05:39:47.754Z,977.53
2019-01-10T05:40:45.298Z,977.44
2019-01-10T05:41:45.210Z,977.48
2019-01-10T05:42:45.125Z,977.47
2019-01-10T05:43:45.038Z,977.48
2019-01-10T05:44:44.943Z,977.49
2019-01-10T05:45:44.868Z,977.49
2019-01-10T05:46:48.617Z,977.49
2019-01-10T05:47:44.678Z,977.45
2019-01-10T05:48:47.213Z,977.62
2019-01-10T05:49:44.501Z,977.50
2019-01-10T05:50:44.431Z,977.50
2019-01-10T05:51:44.321Z,977.49
2019-01-10T05:52:44.234Z,977.53
2019-01-10T05:53:44.144Z,977.53
2019-01-10T05:54:44.054Z,977.53
2019-01-10T05:55:43.965Z,977.50
2019-01-10T05:56:43.881Z,977.51
2019-01-10T05:57:43.787Z,977.52
2019-01-10T05:58:44.606Z,977.53
2019-01-10T05:59:43.615Z,977.59
2019-01-10T06:00:43.519Z,977.61
2019-01-10T06:01:43.436Z,977.59
2019-01-10T06:02:43.345Z,977.57
2019-01-10T06:03:43.255Z,977.59
2019-01-10T06:04:43.164Z,977.61
2019-01-10T06:05:43.076Z,977.63
2019-01-10T06:06:42.987Z,977.63
2019-01-10T06:07:42.899Z,977.63
2019-01-10T06:08:42.811Z,977.66
2019-01-10T06:09:42.722Z,977.79
2019-01-10T06:10:42.633Z,977.70
2019-01-10T06:11:42.542Z,977.74
2019-01-10T06:12:42.453Z,977.76
2019-01-10T06:13:42.366Z,977.72
2019-01-10T06:14:42.279Z,977.70
2019-01-10T06:15:42.187Z,977.72
2019-01-10T06:16:42.097Z,977.82
2019-01-10T06:17:42.045Z,977.75
2019-01-10T06:18:41.921Z,977.78
2019-01-10T06:19:41.837Z,977.80
2019-01-10T06:20:41.742Z,977.81
2019-01-10T06:21:41.652Z,977.86
2019-01-10T06:22:41.566Z,977.83
2019-01-10T06:23:41.481Z,977.95
2019-01-10T06:24:41.386Z,977.91
2019-01-10T06:25:41.308Z,977.98
2019-01-10T06:26:41.209Z,978.00
2019-01-10T06:27:41.119Z,978.01
2019-01-10T06:28:41.030Z,977.98
2019-01-10T06:29:40.956Z,978.04
2019-01-10T06:30:40.853Z,977.99
2019-01-10T06:31:40.764Z,978.02
2019-01-10T06:32:40.676Z,978.05
2019-01-10T06:33:40.588Z,978.00
2019-01-10T06:34:40.502Z,978.04
2019-01-10T06:35:40.409Z,978.00
2019-01-10T06:36:40.320Z,978.04
2019-01-10T06:37:40.234Z,978.05
2019-01-10T06:38:40.145Z,978.08
2019-01-10T06:39:40.056Z,978.10
2019-01-10T06:40:39.967Z,978.11
2019-01-10T06:41:39.876Z,978.08
2019-01-10T06:42:39.790Z,978.13
2019-01-10T06:43:39.698Z,978.10
2019-01-10T06:44:44.466Z,978.15
2019-01-10T06:45:39.520Z,978.13
2019-01-10T06:46:39.432Z,978.16
2019-01-10T06:47:39.348Z,978.18
2019-01-10T06:48:39.256Z,978.17
2019-01-10T06:49:39.193Z,978.19
2019-01-10T06:50:39.262Z,978.24
2019-01-10T06:51:38.989Z,978.15
2019-01-10T06:52:38.900Z,978.23
2019-01-10T06:53:38.810Z,978.25
2019-01-10T06:54:38.722Z,978.19
2019-01-10T06:55:38.638Z,978.21
2019-01-10T06:56:38.544Z,978.24
2019-01-10T06:57:38.458Z,978.25
2019-01-10T06:58:38.368Z,978.22
2019-01-10T06:59:38.277Z,978.27
2019-01-10T07:00:38.193Z,978.22
2019-01-10T07:01:38.104Z,978.34
2019-01-10T07:02:38.010Z,978.35
2019-01-10T07:03:37.923Z,978.37
2019-01-10T07:04:37.834Z,978.37
2019-01-10T07:05:37.750Z,978.38
2019-01-10T07:06:37.876Z,978.42
2019-01-10T07:07:37.567Z,978.45
2019-01-10T07:08:37.477Z,978.45
2019-01-10T07:09:37.390Z,978.44
2019-01-10T07:10:37.300Z,978.51
2019-01-10T07:11:37.211Z,978.50
2019-01-10T07:12:37.123Z,978.54
2019-01-10T07:13:37.033Z,978.55
2019-01-10T07:14:36.944Z,978.56
2019-01-10T07:15:39.116Z,978.57
2019-01-10T07:16:36.765Z,978.57
2019-01-10T07:17:36.684Z,978.57
2019-01-10T07:18:36.590Z,978.53
2019-01-10T07:19:36.500Z,978.57
2019-01-10T07:20:36.453Z,978.67
2019-01-10T07:21:36.322Z,978.61
2019-01-10T07:22:36.240Z,978.64
2019-01-10T07:23:36.147Z,978.66
2019-01-10T07:24:36.055Z,978.69
2019-01-10T07:25:35.968Z,978.67
2019-01-10T07:26:35.881Z,978.74
2019-01-10T07:27:35.789Z,978.71
2019-01-10T07:28:35.709Z,978.69
2019-01-10T07:29:35.611Z,978.70
2019-01-10T07:30:36.475Z,978.74
2019-01-10T07:31:35.434Z,978.73
2019-01-10T07:32:35.350Z,978.76
2019-01-10T07:33:35.257Z,978.79
2019-01-10T07:34:35.167Z,978.74
2019-01-10T07:35:35.080Z,978.73
2019-01-10T07:36:34.989Z,978.79
2019-01-10T07:37:34.899Z,978.80
2019-01-10T07:38:34.817Z,978.81
2019-01-10T07:39:34.722Z,978.88
2019-01-10T07:40:36.521Z,978.82
2019-01-10T07:41:34.543Z,978.87
2019-01-10T07:42:34.455Z,978.86
2019-01-10T07:43:34.372Z,978.87
2019-01-10T07:44:34.277Z,978.92
2019-01-10T07:45:34.187Z,978.93
2019-01-10T07:46:34.100Z,978.98
2019-01-10T07:47:34.014Z,978.88
2019-01-10T07:48:33.919Z,978.88
2019-01-10T07:49:33.835Z,978.84
2019-01-10T07:50:33.742Z,978.88
2019-01-10T07:51:33.655Z,978.90
2019-01-10T07:52:40.757Z,978.98
2019-01-10T07:54:37.894Z,978.93
2019-01-10T07:55:37.745Z,978.95
2019-01-10T09:01:38.603Z,979.60
2019-01-10T09:02:38.460Z,979.61
2019-01-10T09:03:38.376Z,979.66
2019-01-10T09:04:38.272Z,979.67
2019-01-10T09:05:38.185Z,979.70
2019-01-10T09:06:38.086Z,979.72
2019-01-10T09:07:37.997Z,979.73
2019-01-10T09:08:37.904Z,979.71
2019-01-10T09:09:37.843Z,979.77
2019-01-10T09:10:44.897Z,979.82
2019-01-10T09:12:41.547Z,979.83
2019-01-10T09:13:41.410Z,979.81
2019-01-10T09:14:41.320Z,979.84
2019-01-10T09:15:41.233Z,979.85
2019-01-10T09:16:41.159Z,979.89
2019-01-10T09:17:41.053Z,979.84
2019-01-10T09:18:40.965Z,979.81
2019-01-10T09:19:40.877Z,979.87
2019-01-10T09:20:40.786Z,979.85
2019-01-10T09:21:40.699Z,979.97
2019-01-10T09:22:40.609Z,979.90
2019-01-10T09:23:40.549Z,979.90
2019-01-10T09:24:40.435Z,979.94
2019-01-10T09:25:40.348Z,979.91
2019-01-10T09:26:40.257Z,979.90
2019-01-10T09:27:40.168Z,979.96
2019-01-10T09:28:40.087Z,979.95
2019-01-10T09:29:39.993Z,979.96
2019-01-10T09:30:39.907Z,979.94
2019-01-10T09:31:41.686Z,979.94
2019-01-10T09:32:39.734Z,979.95
2019-01-10T09:33:39.813Z,979.97
2019-01-10T09:34:39.555Z,980.00
2019-01-10T09:35:39.467Z,980.00
2019-01-10T09:36:39.381Z,979.98
2019-01-10T09:37:39.292Z,980.01
2019-01-10T09:38:39.204Z,980.02
2019-01-10T09:39:39.123Z,980.02
2019-01-10T09:40:39.028Z,980.06
2019-01-10T09:41:38.961Z,980.05
2019-01-10T09:42:38.856Z,980.07
2019-01-10T09:43:38.772Z,980.07
2019-01-10T09:44:38.680Z,980.07
2019-01-10T09:45:43.432Z,980.13
2019-01-10T09:46:38.506Z,980.12
2019-01-10T09:47:38.420Z,980.16
2019-01-10T09:48:38.332Z,980.14
2019-01-10T09:49:38.244Z,980.14
2019-01-10T09:50:38.157Z,980.16
2019-01-10T09:51:38.071Z,980.26
2019-01-10T09:52:37.989Z,980.20
2019-01-10T09:53:37.897Z,980.24
2019-01-10T09:54:39.241Z,980.23
2019-01-10T09:55:37.779Z,980.26
2019-01-10T09:56:37.637Z,980.29
2019-01-10T09:57:37.546Z,980.26
2019-01-10T09:58:37.462Z,980.29
2019-01-10T09:59:37.381Z,980.25
2019-01-10T10:00:37.287Z,980.33
2019-01-10T10:01:37.200Z,980.19
2019-01-10T10:02:37.116Z,980.26
2019-01-10T10:03:37.025Z,980.27
2019-01-10T10:04:36.943Z,980.29
2019-01-10T10:05:36.855Z,980.24
2019-01-10T10:06:36.770Z,980.28
2019-01-10T10:07:36.682Z,980.30
2019-01-10T10:08:36.594Z,980.29
2019-01-10T10:09:36.505Z,980.30
2019-01-10T10:10:36.423Z,980.30
2019-01-10T10:11:36.337Z,980.32
2019-01-10T10:12:36.258Z,980.33
2019-01-10T10:13:36.162Z,980.33
2019-01-10T10:14:36.073Z,980.31
2019-01-10T10:15:35.986Z,980.34
2019-01-10T10:16:35.898Z,980.32
2019-01-10T10:17:35.813Z,980.36
2019-01-10T10:18:35.726Z,980.38
2019-01-10T10:19:35.640Z,980.35
2019-01-10T10:20:35.552Z,980.37
2019-01-10T10:21:35.468Z,980.39
2019-01-10T10:22:35.381Z,980.36
2019-01-10T10:23:35.295Z,980.40
2019-01-10T10:24:35.206Z,980.41
2019-01-10T10:25:35.131Z,980.41
2019-01-10T10:26:35.038Z,980.38
2019-01-10T10:27:34.949Z,980.43
2019-01-10T10:28:34.864Z,980.38
2019-01-10T10:29:34.778Z,980.42
2019-01-10T10:30:34.688Z,980.43
2019-01-10T10:31:34.606Z,980.44
2019-01-10T10:32:34.581Z,980.43
2019-01-10T10:33:34.429Z,980.48
2019-01-10T10:34:34.345Z,980.44
2019-01-10T10:35:34.257Z,980.42
2019-01-10T10:36:34.173Z,980.49
2019-01-10T10:37:34.083Z,980.47
2019-01-10T10:38:34.000Z,980.47
2019-01-10T10:39:33.913Z,980.49
2019-01-10T10:40:33.823Z,980.50
2019-01-10T10:41:33.740Z,980.51
2019-01-10T10:42:33.652Z,980.47
2019-01-10T10:43:33.571Z,980.56
2019-01-10T10:44:33.490Z,980.48
2019-01-10T10:45:33.395Z,980.48
2019-01-10T10:46:33.308Z,980.51
2019-01-10T10:47:33.220Z,980.53
2019-01-10T10:48:33.141Z,980.57
2019-01-10T10:49:33.047Z,980.54
2019-01-10T10:50:32.961Z,980.51
2019-01-10T10:51:32.881Z,980.58
2019-01-10T10:52:32.787Z,980.59
2019-01-10T10:53:32.708Z,980.57
2019-01-10T10:54:32.614Z,980.57
2019-01-10T10:55:32.529Z,980.57
2019-01-10T10:56:32.451Z,980.58
2019-01-10T10:57:32.359Z,980.61
2019-01-10T10:58:32.271Z,980.58
2019-01-10T10:59:32.185Z,980.60
2019-01-10T11:00:32.101Z,980.57
2019-01-10T11:01:32.012Z,980.59
2019-01-10T11:02:31.924Z,980.61
2019-01-10T11:03:31.840Z,980.64
2019-01-10T11:04:31.756Z,980.60
2019-01-10T11:05:31.667Z,980.64
2019-01-10T11:06:31.582Z,980.62
2019-01-10T11:07:31.492Z,980.60
2019-01-10T11:08:31.408Z,980.64
2019-01-10T11:09:31.320Z,980.69
2019-01-10T11:10:31.234Z,980.62
2019-01-10T11:11:31.148Z,980.63
2019-01-10T11:12:31.061Z,980.64
2019-01-10T11:13:30.978Z,980.64
2019-01-10T11:14:30.899Z,980.58
2019-01-10T11:15:30.803Z,980.59
2019-01-10T11:16:30.718Z,980.66
2019-01-10T11:17:30.635Z,980.69
2019-01-10T11:18:30.548Z,980.67
2019-01-10T11:19:30.462Z,980.65
2019-01-10T11:20:30.372Z,980.65
2019-01-10T11:21:30.290Z,980.64
2019-01-10T11:22:30.202Z,980.67
2019-01-10T11:23:30.117Z,980.65
2019-01-10T11:24:30.030Z,980.66
2019-01-10T11:25:29.945Z,980.64
2019-01-10T11:26:29.858Z,980.63
2019-01-10T11:27:29.783Z,980.63
2019-01-10T11:28:29.685Z,980.61
2019-01-10T11:29:29.598Z,980.64
2019-01-10T11:30:29.516Z,980.65
2019-01-10T11:31:29.428Z,980.70
2019-01-10T11:32:29.342Z,980.64
2019-01-10T11:33:29.255Z,980.68
2019-01-10T11:34:29.169Z,980.57
2019-01-10T11:35:29.083Z,980.60
2019-01-10T11:36:29.000Z,980.62
2019-01-10T11:37:28.909Z,980.59
2019-01-10T11:38:28.825Z,980.57
2019-01-10T11:39:28.741Z,980.60
2019-01-10T11:40:28.682Z,980.59
2019-01-10T11:41:28.566Z,980.57
2019-01-10T11:42:28.478Z,980.54
2019-01-10T11:43:28.390Z,980.59
2019-01-10T11:44:28.305Z,980.54
2019-01-10T11:45:28.224Z,980.64
2019-01-10T11:46:28.133Z,980.59
2019-01-10T11:47:28.044Z,980.62
2019-01-10T11:48:27.958Z,980.55
2019-01-10T11:49:27.871Z,980.56
2019-01-10T11:50:27.786Z,980.50
2019-01-10T11:51:27.705Z,980.57
2019-01-10T11:52:27.614Z,980.51
2019-01-10T11:53:35.266Z,980.56
2019-01-10T11:54:27.439Z,980.54
2019-01-10T11:55:27.355Z,980.49
2019-01-10T11:56:27.267Z,980.51
2019-01-10T11:57:27.183Z,980.51
2019-01-10T11:58:27.095Z,980.49
2019-01-10T11:59:27.009Z,980.51
2019-01-10T12:00:26.920Z,980.49
2019-01-10T12:01:26.834Z,980.49
2019-01-10T12:02:26.747Z,980.44
2019-01-10T12:03:26.660Z,980.49
2019-01-10T12:04:26.573Z,980.49
2019-01-10T12:05:26.495Z,980.54
2019-01-10T12:06:26.399Z,980.47
2019-01-10T12:07:26.313Z,980.54
2019-01-10T12:08:26.225Z,980.55
2019-01-10T12:09:26.143Z,980.55
2019-01-10T12:10:26.057Z,980.59
2019-01-10T12:11:25.973Z,980.58
2019-01-10T12:12:25.880Z,980.57
2019-01-10T12:13:25.794Z,980.58
2019-01-10T12:14:25.718Z,980.62
2019-01-10T12:15:25.621Z,980.60
2019-01-10T12:16:28.694Z,980.60
2019-01-10T12:17:25.451Z,980.60
2019-01-10T12:18:25.365Z,980.65
2019-01-10T12:19:25.273Z,980.62
2019-01-10T12:20:25.189Z,980.63
2019-01-10T12:21:25.102Z,980.64
2019-01-10T12:22:25.018Z,980.66
2019-01-10T12:23:24.928Z,980.67
2019-01-10T12:24:24.853Z,980.63
2019-01-10T12:25:24.755Z,980.62
2019-01-10T12:26:24.667Z,980.68
2019-01-10T12:27:24.581Z,980.64
2019-01-10T12:28:26.525Z,980.70
2019-01-10T12:29:24.410Z,980.67
2019-01-10T12:30:24.323Z,980.69
2019-01-10T12:31:24.233Z,980.69
2019-01-10T12:32:24.144Z,980.72
2019-01-10T12:33:24.060Z,980.72
2019-01-10T12:34:23.973Z,980.72
2019-01-10T12:35:23.887Z,980.72
2019-01-10T12:36:23.798Z,980.71
2019-01-10T12:37:23.709Z,980.72
2019-01-10T12:38:23.623Z,980.71
2019-01-10T12:39:23.541Z,980.70
2019-01-10T12:40:23.449Z,980.71
2019-01-10T12:41:23.366Z,980.70
2019-01-10T12:42:23.282Z,980.68
2019-01-10T12:43:23.194Z,980.70
2019-01-10T12:44:23.102Z,980.70
2019-01-10T12:45:23.020Z,980.65
2019-01-10T12:46:22.929Z,980.68
2019-01-10T12:47:22.843Z,980.70
2019-01-10T12:48:22.784Z,980.72
2019-01-10T12:49:22.668Z,980.62
2019-01-10T12:50:22.582Z,980.75
2019-01-10T12:51:22.495Z,980.66
2019-01-10T12:52:22.408Z,980.69
2019-01-10T12:53:22.325Z,980.72
2019-01-10T12:54:22.235Z,980.74
2019-01-10T12:55:22.156Z,980.78
2019-01-10T12:56:22.060Z,980.72
2019-01-10T12:57:21.976Z,980.77
2019-01-10T12:58:21.889Z,980.75
2019-01-10T12:59:21.800Z,980.84
2019-01-10T13:00:21.728Z,980.77
2019-01-10T13:01:21.628Z,980.80
2019-01-10T13:02:21.540Z,980.85
2019-01-10T13:03:21.452Z,980.82
2019-01-10T13:04:21.368Z,980.80
2019-01-10T13:05:21.281Z,980.80
2019-01-10T13:06:21.193Z,980.81
2019-01-10T13:07:21.111Z,980.81
2019-01-10T13:08:21.021Z,980.81
2019-01-10T13:09:20.940Z,980.87
2019-01-10T13:10:20.849Z,980.94
2019-01-10T13:11:20.764Z,980.81
2019-01-10T13:12:20.674Z,980.88
2019-01-10T13:13:20.588Z,980.94
2019-01-10T13:14:20.500Z,980.90
2019-01-10T13:15:20.419Z,980.88
2019-01-10T13:16:20.329Z,980.94
2019-01-10T13:17:20.244Z,980.97
2019-01-10T13:18:20.166Z,980.96
2019-01-10T13:19:20.069Z,980.96
2019-01-10T13:20:19.984Z,980.97
2019-01-10T13:21:19.898Z,981.01
2019-01-10T13:22:19.813Z,981.01
2019-01-10T13:23:19.729Z,981.01
2019-01-10T13:24:19.641Z,981.01
2019-01-10T13:25:19.556Z,981.03
2019-01-10T13:26:19.512Z,981.01
2019-01-10T13:27:19.389Z,981.02
2019-01-10T13:28:19.301Z,981.08
2019-01-10T13:29:19.208Z,981.05
2019-01-10T13:30:19.125Z,981.04
2019-01-10T13:31:19.051Z,981.08
2019-01-10T13:32:18.951Z,981.07
2019-01-10T13:33:18.869Z,981.04
2019-01-10T13:34:18.782Z,981.06
2019-01-10T13:35:18.695Z,981.04